Buoy 52514

sailwx.info

Track history (hours):
 
Tides and Currents Weather Stations Pressure Air Temp Water Temp Dewpoint Dewpoint Depression Visibility Wind Speed Wind Dir Waves Ship Positions

Drifting buoy 52514

Last reported at 2017-Feb-27 23:00 UTC. Time now 2017-Feb-28 03:23 UTC.
Position N 16°28' E 125°31'.

Date/timePositionNaut miles runAvg speedWind from/ knotsBaromVisibWave heightAir tempDewpointWater temp
2017-Feb-27 23:00N 16°28' E 125°31'0 0.0
2017-Feb-27 22:00N 16°28' E 125°31'2 1.8
2017-Feb-27 21:00N 16°27' E 125°33'0 0.0
2017-Feb-27 20:00N 16°27' E 125°33'2 1.8
2017-Feb-27 19:00N 16°28' E 125°35'0 0.0
2017-Feb-27 18:00N 16°28' E 125°35'0 0.0
2017-Feb-27 17:00N 16°28' E 125°35'5 1.5
2017-Feb-27 14:00N 16°27' E 125°40'2 2.1
2017-Feb-27 13:00N 16°28' E 125°41'0 0.0
2017-Feb-27 12:00N 16°28' E 125°41'1 0.6
2017-Feb-27 11:00N 16°28' E 125°41'1 0.6
2017-Feb-27 10:00N 16°28' E 125°42'3 2.6
2017-Feb-27 09:00N 16°29' E 125°44'1 1.2
2017-Feb-27 08:00N 16°29' E 125°46'5 1.8
2017-Feb-27 05:00N 16°32' E 125°50'0 0.0
2017-Feb-27 02:00N 16°32' E 125°50'0 0.0
2017-Feb-27 01:00N 16°32' E 125°50'3 1.1
2017-Feb-26 22:00N 16°34' E 125°53'1 0.6
2017-Feb-26 21:00N 16°34' E 125°54'1 1.3
2017-Feb-26 20:00N 16°34' E 125°55'2 0.8
2017-Feb-26 18:00N 16°35' E 125°56'0 0.0
2017-Feb-26 17:00N 16°35' E 125°56'7 1.9
2017-Feb-26 13:00N 16°40' E 126°02'1 1.3
2017-Feb-26 12:00N 16°41' E 126°04'2 2.5
2017-Feb-26 11:00N 16°43' E 126°05'1 0.4
2017-Feb-26 09:00N 16°43' E 126°06'2 2.5
2017-Feb-26 08:00N 16°45' E 126°08'0 0.0
2017-Feb-26 07:00N 16°45' E 126°08'7 3.3
2017-Feb-26 05:00N 16°47' E 126°14'1 0.2
2017-Feb-26 01:00N 16°47' E 126°15'3 1.0
2017-Feb-25 22:00N 16°46' E 126°18'0 0.0
2017-Feb-25 21:00N 16°46' E 126°18'1 0.6
2017-Feb-25 20:00N 16°46' E 126°19'2 0.9
2017-Feb-25 18:00N 16°46' E 126°20'7 1.4
2017-Feb-25 13:00N 16°44' E 126°28'5 4.8
2017-Feb-25 12:00N 16°43' E 126°32'1 0.3
2017-Feb-25 10:00N 16°43' E 126°33'2 1.8
2017-Feb-25 09:00N 16°42' E 126°35'0 0.0
2017-Feb-25 08:00N 16°42' E 126°35'3 3.5
2017-Feb-25 07:00N 16°43' E 126°38'0 0.0
2017-Feb-25 06:00N 16°43' E 126°38'0 0.0
2017-Feb-25 05:00N 16°43' E 126°38'6 2.0
2017-Feb-25 02:00N 16°44' E 126°44'2 0.9
2017-Feb-25 00:00N 16°43' E 126°46'2 1.8
2017-Feb-24 23:00N 16°43' E 126°48'1 0.6
2017-Feb-24 22:00N 16°43' E 126°47'4 3.7
2017-Feb-24 21:00N 16°41' E 126°51'0 0.0
2017-Feb-24 20:00N 16°41' E 126°51'0 0.0
2017-Feb-24 18:00N 16°41' E 126°51'5 1.0
2017-Feb-24 13:00N 16°40' E 126°56'3 2.9
2017-Feb-24 12:00N 16°40' E 126°59'1 0.4
2017-Feb-24 10:00N 16°39' E 126°59'1 1.1
2017-Feb-24 09:00N 16°39' E 127°01'1 0.6
2017-Feb-24 08:00N 16°39' E 127°01'2 0.9
2017-Feb-24 06:00N 16°39' E 127°03'0 0.0
2017-Feb-24 05:00N 16°39' E 127°03'5 1.0
2017-Feb-24 00:00N 16°40' E 127°08'1 0.3
2017-Feb-23 22:00N 16°40' E 127°08'2 1.7
2017-Feb-23 21:00N 16°41' E 127°10'0 0.0
2017-Feb-23 20:00N 16°41' E 127°10'1 0.6
2017-Feb-23 19:00N 16°42' E 127°10'0 0.0
2017-Feb-23 18:00N 16°42' E 127°10'3 0.6
2017-Feb-23 12:00N 16°44' E 127°13'1 0.3
2017-Feb-23 10:00N 16°43' E 127°13'1 0.8
2017-Feb-23 09:00N 16°44' E 127°13'0 0.0
2017-Feb-23 08:00N 16°44' E 127°13'1 0.3
2017-Feb-23 06:00N 16°44' E 127°14'0 0.0
2017-Feb-23 01:00N 16°44' E 127°14'1 0.4
2017-Feb-22 23:00N 16°43' E 127°13'1 0.6
2017-Feb-22 22:00N 16°43' E 127°13'1 1.3
2017-Feb-22 21:00N 16°41' E 127°13'1 0.6
2017-Feb-22 20:00N 16°41' E 127°13'0 0.0
2017-Feb-22 19:00N 16°41' E 127°13'1 0.6
2017-Feb-22 18:00N 16°40' E 127°13'1 0.6
2017-Feb-22 17:00N 16°40' E 127°13'5 1.1
2017-Feb-22 13:00N 16°36' E 127°15'2 2.1
2017-Feb-22 12:00N 16°35' E 127°17'0 0.0
2017-Feb-22 11:00N 16°35' E 127°17'1 0.8
2017-Feb-22 10:00N 16°34' E 127°17'1 0.8
2017-Feb-22 09:00N 16°34' E 127°18'1 0.6
2017-Feb-22 08:00N 16°33' E 127°18'2 1.8
2017-Feb-22 07:00N 16°32' E 127°20'6 5.9
2017-Feb-22 06:00N 16°31' E 127°26'0 0.0
2017-Feb-22 05:00N 16°31' E 127°26'0 0.0
2017-Feb-22 02:00N 16°31' E 127°26'1 1.3
2017-Feb-22 01:00N 16°31' E 127°27'3 1.4
2017-Feb-21 23:00N 16°31' E 127°30'2 2.4
2017-Feb-21 22:00N 16°31' E 127°32'1 0.6
2017-Feb-21 21:00N 16°31' E 127°33'2 1.7
2017-Feb-21 20:00N 16°32' E 127°34'0 0.0
2017-Feb-21 19:00N 16°32' E 127°34'7 3.4
2017-Feb-21 17:00N 16°35' E 127°41'2 0.6
2017-Feb-21 13:00N 16°35' E 127°43'1 0.6
2017-Feb-21 12:00N 16°36' E 127°43'1 1.3
2017-Feb-21 11:00N 16°37' E 127°44'2 2.5
2017-Feb-21 10:00N 16°39' E 127°46'0 0.0
2017-Feb-21 09:00N 16°39' E 127°46'2 2.5
2017-Feb-21 08:00N 16°41' E 127°46'0 0.0
2017-Feb-21 07:00N 16°41' E 127°46'2 1.9
2017-Feb-21 06:00N 16°43' E 127°47'1 0.6
2017-Feb-21 05:00N 16°43' E 127°46'0 0.0
2017-Feb-21 04:00N 16°43' E 127°46'4 1.3
2017-Feb-21 01:00N 16°47' E 127°47'2 0.9
2017-Feb-20 23:00N 16°49' E 127°48'0 0.0
2017-Feb-20 22:00N 16°49' E 127°48'1 0.6
2017-Feb-20 21:00N 16°49' E 127°48'1 1.3
2017-Feb-20 20:00N 16°50' E 127°49'1 0.8
2017-Feb-20 19:00N 16°51' E 127°48'1 1.2
2017-Feb-20 18:00N 16°52' E 127°48'1 0.6
2017-Feb-20 17:00N 16°53' E 127°48'4 0.9
2017-Feb-20 13:00N 16°56' E 127°48'1 1.3
2017-Feb-20 12:00N 16°58' E 127°47'2 0.8
2017-Feb-20 10:00N 16°56' E 127°49'2 2.1
2017-Feb-20 09:00N 16°58' E 127°47'0 0.0
2017-Feb-20 07:00N 16°58' E 127°47'1 1.3
2017-Feb-20 06:00N 16°59' E 127°48'0 0.0
2017-Feb-20 05:00N 16°59' E 127°48'0 0.0
2017-Feb-20 04:00N 16°59' E 127°48'2 0.8
2017-Feb-20 02:00N 17°01' E 127°47'1 0.4
2017-Feb-20 00:00N 17°01' E 127°46'0 0.0
2017-Feb-19 23:00N 17°01' E 127°46'0 0.0
2017-Feb-19 22:00N 17°01' E 127°46'1 0.6
2017-Feb-19 21:00N 17°02' E 127°46'1 0.6
2017-Feb-19 20:00N 17°02' E 127°46'0 0.0
2017-Feb-19 19:00N 17°02' E 127°46'1 0.6
2017-Feb-19 18:00N 17°01' E 127°46'0 0.0
2017-Feb-19 17:00N 17°01' E 127°46'1 0.3
2017-Feb-19 13:00N 17°02' E 127°47'0 0.0
2017-Feb-19 12:00N 17°02' E 127°47'1 0.8
2017-Feb-19 11:00N 17°01' E 127°47'1 0.6
2017-Feb-19 10:00N 17°02' E 127°47'1 0.6
2017-Feb-19 09:00N 17°02' E 127°48'1 1.3
2017-Feb-19 08:00N 17°02' E 127°49'2 1.7
2017-Feb-19 07:00N 17°04' E 127°50'0 0.0
2017-Feb-19 06:00N 17°04' E 127°50'0 0.0
2017-Feb-19 05:00N 17°04' E 127°50'0 0.0
2017-Feb-19 04:00N 17°04' E 127°50'3 1.3
2017-Feb-19 02:00N 17°06' E 127°52'1 0.3
2017-Feb-19 00:00N 17°06' E 127°52'1 0.7
2017-Feb-18 22:00N 17°07' E 127°53'2 1.7
2017-Feb-18 21:00N 17°08' E 127°54'1 1.3
2017-Feb-18 20:00N 17°10' E 127°55'0 0.0
2017-Feb-18 19:00N 17°10' E 127°55'0 0.0
2017-Feb-18 18:00N 17°10' E 127°55'0 0.0
2017-Feb-18 17:00N 17°10' E 127°55'3 0.8
2017-Feb-18 13:00N 17°13' E 127°54'1 0.6
2017-Feb-18 11:00N 17°14' E 127°54'0 0.0
2017-Feb-18 10:00N 17°14' E 127°54'1 1.1
2017-Feb-18 09:00N 17°14' E 127°55'1 0.6
2017-Feb-18 08:00N 17°14' E 127°55'1 1.3
2017-Feb-18 07:00N 17°16' E 127°56'0 0.0
2017-Feb-18 06:00N 17°16' E 127°56'2 2.5
2017-Feb-18 05:00N 17°18' E 127°56'0 0.0
2017-Feb-18 01:00N 17°18' E 127°56'1 0.3
2017-Feb-17 23:00N 17°19' E 127°56'  
Track history (hours):
 
Tides and Currents Weather Stations Pressure Air Temp Water Temp Dewpoint Dewpoint Depression Visibility Wind Speed Wind Dir Waves Ship Positions

Drifting buoy 52514

Last reported at 2017-Feb-27 23:00 UTC. Time now 2017-Feb-28 03:23 UTC.
Position N 16°28' E 125°31'.

Date/timePositionNaut miles runAvg speedWind from/ knotsBaromVisibWave heightAir tempDewpointWater temp
2017-Feb-27 23:00N 16°28' E 125°31'0 0.0
2017-Feb-27 22:00N 16°28' E 125°31'2 1.8
2017-Feb-27 21:00N 16°27' E 125°33'0 0.0
2017-Feb-27 20:00N 16°27' E 125°33'2 1.8
2017-Feb-27 19:00N 16°28' E 125°35'0 0.0
2017-Feb-27 18:00N 16°28' E 125°35'0 0.0
2017-Feb-27 17:00N 16°28' E 125°35'5 1.5
2017-Feb-27 14:00N 16°27' E 125°40'2 2.1
2017-Feb-27 13:00N 16°28' E 125°41'0 0.0
2017-Feb-27 12:00N 16°28' E 125°41'1 0.6
2017-Feb-27 11:00N 16°28' E 125°41'1 0.6
2017-Feb-27 10:00N 16°28' E 125°42'3 2.6
2017-Feb-27 09:00N 16°29' E 125°44'1 1.2
2017-Feb-27 08:00N 16°29' E 125°46'5 1.8
2017-Feb-27 05:00N 16°32' E 125°50'0 0.0
2017-Feb-27 02:00N 16°32' E 125°50'0 0.0
2017-Feb-27 01:00N 16°32' E 125°50'3 1.1
2017-Feb-26 22:00N 16°34' E 125°53'1 0.6
2017-Feb-26 21:00N 16°34' E 125°54'1 1.3
2017-Feb-26 20:00N 16°34' E 125°55'2 0.8
2017-Feb-26 18:00N 16°35' E 125°56'0 0.0
2017-Feb-26 17:00N 16°35' E 125°56'7 1.9
2017-Feb-26 13:00N 16°40' E 126°02'1 1.3
2017-Feb-26 12:00N 16°41' E 126°04'2 2.5
2017-Feb-26 11:00N 16°43' E 126°05'1 0.4
2017-Feb-26 09:00N 16°43' E 126°06'2 2.5
2017-Feb-26 08:00N 16°45' E 126°08'0 0.0
2017-Feb-26 07:00N 16°45' E 126°08'7 3.3
2017-Feb-26 05:00N 16°47' E 126°14'1 0.2
2017-Feb-26 01:00N 16°47' E 126°15'3 1.0
2017-Feb-25 22:00N 16°46' E 126°18'0 0.0
2017-Feb-25 21:00N 16°46' E 126°18'1 0.6
2017-Feb-25 20:00N 16°46' E 126°19'2 0.9
2017-Feb-25 18:00N 16°46' E 126°20'7 1.4
2017-Feb-25 13:00N 16°44' E 126°28'5 4.8
2017-Feb-25 12:00N 16°43' E 126°32'1 0.3
2017-Feb-25 10:00N 16°43' E 126°33'2 1.8
2017-Feb-25 09:00N 16°42' E 126°35'0 0.0
2017-Feb-25 08:00N 16°42' E 126°35'3 3.5
2017-Feb-25 07:00N 16°43' E 126°38'0 0.0
2017-Feb-25 06:00N 16°43' E 126°38'0 0.0
2017-Feb-25 05:00N 16°43' E 126°38'6 2.0
2017-Feb-25 02:00N 16°44' E 126°44'2 0.9
2017-Feb-25 00:00N 16°43' E 126°46'2 1.8
2017-Feb-24 23:00N 16°43' E 126°48'1 0.6
2017-Feb-24 22:00N 16°43' E 126°47'4 3.7
2017-Feb-24 21:00N 16°41' E 126°51'0 0.0
2017-Feb-24 20:00N 16°41' E 126°51'0 0.0
2017-Feb-24 18:00N 16°41' E 126°51'5 1.0
2017-Feb-24 13:00N 16°40' E 126°56'3 2.9
2017-Feb-24 12:00N 16°40' E 126°59'1 0.4
2017-Feb-24 10:00N 16°39' E 126°59'1 1.1
2017-Feb-24 09:00N 16°39' E 127°01'1 0.6
2017-Feb-24 08:00N 16°39' E 127°01'2 0.9
2017-Feb-24 06:00N 16°39' E 127°03'0 0.0
2017-Feb-24 05:00N 16°39' E 127°03'5 1.0
2017-Feb-24 00:00N 16°40' E 127°08'1 0.3
2017-Feb-23 22:00N 16°40' E 127°08'2 1.7
2017-Feb-23 21:00N 16°41' E 127°10'0 0.0
2017-Feb-23 20:00N 16°41' E 127°10'1 0.6
2017-Feb-23 19:00N 16°42' E 127°10'0 0.0
2017-Feb-23 18:00N 16°42' E 127°10'3 0.6
2017-Feb-23 12:00N 16°44' E 127°13'1 0.3
2017-Feb-23 10:00N 16°43' E 127°13'1 0.8
2017-Feb-23 09:00N 16°44' E 127°13'0 0.0
2017-Feb-23 08:00N 16°44' E 127°13'1 0.3
2017-Feb-23 06:00N 16°44' E 127°14'0 0.0
2017-Feb-23 01:00N 16°44' E 127°14'1 0.4
2017-Feb-22 23:00N 16°43' E 127°13'1 0.6
2017-Feb-22 22:00N 16°43' E 127°13'1 1.3
2017-Feb-22 21:00N 16°41' E 127°13'1 0.6
2017-Feb-22 20:00N 16°41' E 127°13'0 0.0
2017-Feb-22 19:00N 16°41' E 127°13'1 0.6
2017-Feb-22 18:00N 16°40' E 127°13'1 0.6
2017-Feb-22 17:00N 16°40' E 127°13'5 1.1
2017-Feb-22 13:00N 16°36' E 127°15'2 2.1
2017-Feb-22 12:00N 16°35' E 127°17'0 0.0
2017-Feb-22 11:00N 16°35' E 127°17'1 0.8
2017-Feb-22 10:00N 16°34' E 127°17'1 0.8
2017-Feb-22 09:00N 16°34' E 127°18'1 0.6
2017-Feb-22 08:00N 16°33' E 127°18'2 1.8
2017-Feb-22 07:00N 16°32' E 127°20'6 5.9
2017-Feb-22 06:00N 16°31' E 127°26'0 0.0
2017-Feb-22 05:00N 16°31' E 127°26'0 0.0
2017-Feb-22 02:00N 16°31' E 127°26'1 1.3
2017-Feb-22 01:00N 16°31' E 127°27'3 1.4
2017-Feb-21 23:00N 16°31' E 127°30'2 2.4
2017-Feb-21 22:00N 16°31' E 127°32'1 0.6
2017-Feb-21 21:00N 16°31' E 127°33'2 1.7
2017-Feb-21 20:00N 16°32' E 127°34'0 0.0
2017-Feb-21 19:00N 16°32' E 127°34'7 3.4
2017-Feb-21 17:00N 16°35' E 127°41'2 0.6
2017-Feb-21 13:00N 16°35' E 127°43'1 0.6
2017-Feb-21 12:00N 16°36' E 127°43'1 1.3
2017-Feb-21 11:00N 16°37' E 127°44'2 2.5
2017-Feb-21 10:00N 16°39' E 127°46'0 0.0
2017-Feb-21 09:00N 16°39' E 127°46'2 2.5
2017-Feb-21 08:00N 16°41' E 127°46'0 0.0
2017-Feb-21 07:00N 16°41' E 127°46'2 1.9
2017-Feb-21 06:00N 16°43' E 127°47'1 0.6
2017-Feb-21 05:00N 16°43' E 127°46'0 0.0
2017-Feb-21 04:00N 16°43' E 127°46'4 1.3
2017-Feb-21 01:00N 16°47' E 127°47'2 0.9
2017-Feb-20 23:00N 16°49' E 127°48'0 0.0
2017-Feb-20 22:00N 16°49' E 127°48'1 0.6
2017-Feb-20 21:00N 16°49' E 127°48'1 1.3
2017-Feb-20 20:00N 16°50' E 127°49'1 0.8
2017-Feb-20 19:00N 16°51' E 127°48'1 1.2
2017-Feb-20 18:00N 16°52' E 127°48'1 0.6
2017-Feb-20 17:00N 16°53' E 127°48'4 0.9
2017-Feb-20 13:00N 16°56' E 127°48'1 1.3
2017-Feb-20 12:00N 16°58' E 127°47'2 0.8
2017-Feb-20 10:00N 16°56' E 127°49'2 2.1
2017-Feb-20 09:00N 16°58' E 127°47'0 0.0
2017-Feb-20 07:00N 16°58' E 127°47'1 1.3
2017-Feb-20 06:00N 16°59' E 127°48'0 0.0
2017-Feb-20 05:00N 16°59' E 127°48'0 0.0
2017-Feb-20 04:00N 16°59' E 127°48'2 0.8
2017-Feb-20 02:00N 17°01' E 127°47'1 0.4
2017-Feb-20 00:00N 17°01' E 127°46'0 0.0
2017-Feb-19 23:00N 17°01' E 127°46'0 0.0
2017-Feb-19 22:00N 17°01' E 127°46'1 0.6
2017-Feb-19 21:00N 17°02' E 127°46'1 0.6
2017-Feb-19 20:00N 17°02' E 127°46'0 0.0
2017-Feb-19 19:00N 17°02' E 127°46'1 0.6
2017-Feb-19 18:00N 17°01' E 127°46'0 0.0
2017-Feb-19 17:00N 17°01' E 127°46'1 0.3
2017-Feb-19 13:00N 17°02' E 127°47'0 0.0
2017-Feb-19 12:00N 17°02' E 127°47'1 0.8
2017-Feb-19 11:00N 17°01' E 127°47'1 0.6
2017-Feb-19 10:00N 17°02' E 127°47'1 0.6
2017-Feb-19 09:00N 17°02' E 127°48'1 1.3
2017-Feb-19 08:00N 17°02' E 127°49'2 1.7
2017-Feb-19 07:00N 17°04' E 127°50'0 0.0
2017-Feb-19 06:00N 17°04' E 127°50'0 0.0
2017-Feb-19 05:00N 17°04' E 127°50'0 0.0
2017-Feb-19 04:00N 17°04' E 127°50'3 1.3
2017-Feb-19 02:00N 17°06' E 127°52'1 0.3
2017-Feb-19 00:00N 17°06' E 127°52'1 0.7
2017-Feb-18 22:00N 17°07' E 127°53'2 1.7
2017-Feb-18 21:00N 17°08' E 127°54'1 1.3
2017-Feb-18 20:00N 17°10' E 127°55'0 0.0
2017-Feb-18 19:00N 17°10' E 127°55'0 0.0
2017-Feb-18 18:00N 17°10' E 127°55'0 0.0
2017-Feb-18 17:00N 17°10' E 127°55'3 0.8
2017-Feb-18 13:00N 17°13' E 127°54'1 0.6
2017-Feb-18 11:00N 17°14' E 127°54'0 0.0
2017-Feb-18 10:00N 17°14' E 127°54'1 1.1
2017-Feb-18 09:00N 17°14' E 127°55'1 0.6
2017-Feb-18 08:00N 17°14' E 127°55'1 1.3
2017-Feb-18 07:00N 17°16' E 127°56'0 0.0
2017-Feb-18 06:00N 17°16' E 127°56'2 2.5
2017-Feb-18 05:00N 17°18' E 127°56'0 0.0
2017-Feb-18 01:00N 17°18' E 127°56'1 0.3
2017-Feb-17 23:00N 17°19' E 127°56'  

Dump ship's entire track history